sensor_id;sensor_type;location;lat;lon;timestamp;temperature;humidity
8565;DHT22;4320;51.498;6.556;2022-11-20T00:01:15;2.10;87.10
8565;DHT22;4320;51.498;6.556;2022-11-20T00:03:41;2.10;90.50
8565;DHT22;4320;51.498;6.556;2022-11-20T00:06:09;2.00;91.40
8565;DHT22;4320;51.498;6.556;2022-11-20T00:08:35;2.00;91.10
8565;DHT22;4320;51.498;6.556;2022-11-20T00:11:09;2.00;90.60
8565;DHT22;4320;51.498;6.556;2022-11-20T00:13:36;2.10;90.40
8565;DHT22;4320;51.498;6.556;2022-11-20T00:16:06;2.10;92.20
8565;DHT22;4320;51.498;6.556;2022-11-20T00:18:33;2.00;90.50
8565;DHT22;4320;51.498;6.556;2022-11-20T00:21:03;2.00;90.30
8565;DHT22;4320;51.498;6.556;2022-11-20T00:23:29;2.00;91.20
8565;DHT22;4320;51.498;6.556;2022-11-20T00:25:55;2.00;92.10
8565;DHT22;4320;51.498;6.556;2022-11-20T00:28:20;2.00;93.10
8565;DHT22;4320;51.498;6.556;2022-11-20T00:30:46;2.00;92.90
8565;DHT22;4320;51.498;6.556;2022-11-20T00:33:12;1.90;95.00
8565;DHT22;4320;51.498;6.556;2022-11-20T00:35:37;2.00;98.50
8565;DHT22;4320;51.498;6.556;2022-11-20T00:38:03;1.90;97.20
8565;DHT22;4320;51.498;6.556;2022-11-20T00:40:28;1.90;97.00
8565;DHT22;4320;51.498;6.556;2022-11-20T00:42:54;1.90;97.30
8565;DHT22;4320;51.498;6.556;2022-11-20T00:45:20;1.90;97.20
8565;DHT22;4320;51.498;6.556;2022-11-20T00:47:45;1.90;97.90
8565;DHT22;4320;51.498;6.556;2022-11-20T00:50:11;1.90;98.00
8565;DHT22;4320;51.498;6.556;2022-11-20T00:52:37;1.90;98.40
8565;DHT22;4320;51.498;6.556;2022-11-20T00:55:02;1.90;96.90
8565;DHT22;4320;51.498;6.556;2022-11-20T00:57:28;1.90;97.50
8565;DHT22;4320;51.498;6.556;2022-11-20T00:59:54;1.90;98.00
8565;DHT22;4320;51.498;6.556;2022-11-20T01:02:19;1.90;97.60
8565;DHT22;4320;51.498;6.556;2022-11-20T01:04:45;1.90;97.30
8565;DHT22;4320;51.498;6.556;2022-11-20T01:07:11;1.90;96.20
8565;DHT22;4320;51.498;6.556;2022-11-20T01:09:36;1.90;98.00
8565;DHT22;4320;51.498;6.556;2022-11-20T01:12:02;1.90;98.70
8565;DHT22;4320;51.498;6.556;2022-11-20T01:14:27;1.90;98.30
8565;DHT22;4320;51.498;6.556;2022-11-20T01:16:53;1.80;98.70
8565;DHT22;4320;51.498;6.556;2022-11-20T01:19:21;1.80;99.90
8565;DHT22;4320;51.498;6.556;2022-11-20T01:21:52;1.80;98.10
8565;DHT22;4320;51.498;6.556;2022-11-20T01:24:19;1.70;97.10
8565;DHT22;4320;51.498;6.556;2022-11-20T01:26:47;1.70;99.10
8565;DHT22;4320;51.498;6.556;2022-11-20T01:29:16;1.70;98.60
8565;DHT22;4320;51.498;6.556;2022-11-20T01:31:42;1.70;99.10
8565;DHT22;4320;51.498;6.556;2022-11-20T01:34:16;1.70;99.90
8565;DHT22;4320;51.498;6.556;2022-11-20T01:36:43;1.60;99.90
8565;DHT22;4320;51.498;6.556;2022-11-20T01:39:15;1.60;99.90
8565;DHT22;4320;51.498;6.556;2022-11-20T01:41:42;1.60;99.90
8565;DHT22;4320;51.498;6.556;2022-11-20T01:47:26;1.60;99.90
8565;DHT22;4320;51.498;6.556;2022-11-20T01:52:38;1.50;99.90
8565;DHT22;4320;51.498;6.556;2022-11-20T01:55:09;1.60;99.90
8565;DHT22;4320;51.498;6.556;2022-11-20T01:57:36;1.60;99.90
8565;DHT22;4320;51.498;6.556;2022-11-20T02:00:07;1.60;99.90
8565;DHT22;4320;51.498;6.556;2022-11-20T02:02:33;1.70;99.90
8565;DHT22;4320;51.498;6.556;2022-11-20T02:05:13;1.70;99.90
8565;DHT22;4320;51.498;6.556;2022-11-20T02:07:40;1.70;99.90
8565;DHT22;4320;51.498;6.556;2022-11-20T02:10:06;1.80;99.90
8565;DHT22;4320;51.498;6.556;2022-11-20T02:12:32;1.70;99.90
8565;DHT22;4320;51.498;6.556;2022-11-20T02:15:16;1.70;99.90
8565;DHT22;4320;51.498;6.556;2022-11-20T02:17:42;1.80;99.90
8565;DHT22;4320;51.498;6.556;2022-11-20T02:20:08;1.80;99.90
8565;DHT22;4320;51.498;6.556;2022-11-20T02:22:41;1.80;99.90
8565;DHT22;4320;51.498;6.556;2022-11-20T02:25:09;1.70;99.90
8565;DHT22;4320;51.498;6.556;2022-11-20T02:27:35;1.80;99.90
8565;DHT22;4320;51.498;6.556;2022-11-20T02:30:04;1.80;99.90
8565;DHT22;4320;51.498;6.556;2022-11-20T02:32:33;1.80;99.90
8565;DHT22;4320;51.498;6.556;2022-11-20T02:37:43;1.70;99.90
8565;DHT22;4320;51.498;6.556;2022-11-20T02:40:10;1.70;99.90
8565;DHT22;4320;51.498;6.556;2022-11-20T02:42:36;1.70;99.90
8565;DHT22;4320;51.498;6.556;2022-11-20T02:45:03;1.70;99.90
8565;DHT22;4320;51.498;6.556;2022-11-20T02:47:29;1.70;99.90
8565;DHT22;4320;51.498;6.556;2022-11-20T02:49:54;1.60;99.90
8565;DHT22;4320;51.498;6.556;2022-11-20T02:52:20;1.50;99.90
8565;DHT22;4320;51.498;6.556;2022-11-20T02:54:45;1.40;99.90
8565;DHT22;4320;51.498;6.556;2022-11-20T02:57:11;1.50;99.90
8565;DHT22;4320;51.498;6.556;2022-11-20T02:59:37;1.50;99.90
8565;DHT22;4320;51.498;6.556;2022-11-20T03:02:02;1.50;99.90
8565;DHT22;4320;51.498;6.556;2022-11-20T03:04:28;1.60;99.90
8565;DHT22;4320;51.498;6.556;2022-11-20T03:06:54;1.60;99.90
8565;DHT22;4320;51.498;6.556;2022-11-20T03:09:20;1.70;99.90
8565;DHT22;4320;51.498;6.556;2022-11-20T03:11:45;1.80;99.90
8565;DHT22;4320;51.498;6.556;2022-11-20T03:14:11;1.80;99.90
8565;DHT22;4320;51.498;6.556;2022-11-20T03:16:36;1.80;99.90
8565;DHT22;4320;51.498;6.556;2022-11-20T03:19:02;1.80;99.90
8565;DHT22;4320;51.498;6.556;2022-11-20T03:21:28;1.80;99.90
8565;DHT22;4320;51.498;6.556;2022-11-20T03:23:54;1.80;99.90
8565;DHT22;4320;51.498;6.556;2022-11-20T03:26:24;1.80;99.90
8565;DHT22;4320;51.498;6.556;2022-11-20T03:28:55;1.80;99.90
8565;DHT22;4320;51.498;6.556;2022-11-20T03:31:30;1.80;99.90
8565;DHT22;4320;51.498;6.556;2022-11-20T03:33:57;1.80;99.90
8565;DHT22;4320;51.498;6.556;2022-11-20T03:36:24;1.70;99.90
8565;DHT22;4320;51.498;6.556;2022-11-20T03:38:50;1.50;99.90
8565;DHT22;4320;51.498;6.556;2022-11-20T03:41:27;1.60;99.90
8565;DHT22;4320;51.498;6.556;2022-11-20T03:43:58;1.60;99.90
8565;DHT22;4320;51.498;6.556;2022-11-20T03:46:25;1.50;99.90
8565;DHT22;4320;51.498;6.556;2022-11-20T03:48:52;1.50;99.90
8565;DHT22;4320;51.498;6.556;2022-11-20T03:51:23;1.50;99.90
8565;DHT22;4320;51.498;6.556;2022-11-20T03:53:51;1.50;99.90
8565;DHT22;4320;51.498;6.556;2022-11-20T03:56:20;1.40;99.90
8565;DHT22;4320;51.498;6.556;2022-11-20T03:58:47;1.50;99.90
8565;DHT22;4320;51.498;6.556;2022-11-20T04:01:18;1.40;99.90
8565;DHT22;4320;51.498;6.556;2022-11-20T04:03:44;1.40;99.90
8565;DHT22;4320;51.498;6.556;2022-11-20T04:06:17;1.40;99.90
8565;DHT22;4320;51.498;6.556;2022-11-20T04:08:43;1.20;99.90
8565;DHT22;4320;51.498;6.556;2022-11-20T04:13:54;1.20;99.90
8565;DHT22;4320;51.498;6.556;2022-11-20T04:16:21;1.30;99.90
8565;DHT22;4320;51.498;6.556;2022-11-20T04:18:47;1.40;99.90
8565;DHT22;4320;51.498;6.556;2022-11-20T04:21:12;1.40;99.90
8565;DHT22;4320;51.498;6.556;2022-11-20T04:23:38;1.40;99.90
8565;DHT22;4320;51.498;6.556;2022-11-20T04:26:07;1.30;99.90
8565;DHT22;4320;51.498;6.556;2022-11-20T04:28:33;1.40;99.90
8565;DHT22;4320;51.498;6.556;2022-11-20T04:31:23;1.20;99.90
8565;DHT22;4320;51.498;6.556;2022-11-20T04:33:49;1.20;99.90
8565;DHT22;4320;51.498;6.556;2022-11-20T04:36:22;1.10;99.90
8565;DHT22;4320;51.498;6.556;2022-11-20T04:38:51;1.20;99.90
8565;DHT22;4320;51.498;6.556;2022-11-20T04:41:19;1.00;99.90
8565;DHT22;4320;51.498;6.556;2022-11-20T04:43:50;1.00;99.90
8565;DHT22;4320;51.498;6.556;2022-11-20T04:46:20;1.10;99.90
8565;DHT22;4320;51.498;6.556;2022-11-20T04:48:46;1.20;99.90
8565;DHT22;4320;51.498;6.556;2022-11-20T04:51:12;1.30;99.90
8565;DHT22;4320;51.498;6.556;2022-11-20T04:53:38;1.40;99.90
8565;DHT22;4320;51.498;6.556;2022-11-20T04:56:06;1.40;99.90
8565;DHT22;4320;51.498;6.556;2022-11-20T04:58:33;1.30;99.90
8565;DHT22;4320;51.498;6.556;2022-11-20T05:01:03;1.40;99.90
8565;DHT22;4320;51.498;6.556;2022-11-20T05:03:29;1.40;99.90
8565;DHT22;4320;51.498;6.556;2022-11-20T05:05:55;1.40;99.90
8565;DHT22;4320;51.498;6.556;2022-11-20T05:08:21;1.30;99.90
8565;DHT22;4320;51.498;6.556;2022-11-20T05:10:47;1.40;99.90
8565;DHT22;4320;51.498;6.556;2022-11-20T05:13:12;1.40;99.90
8565;DHT22;4320;51.498;6.556;2022-11-20T05:15:38;1.50;99.90
8565;DHT22;4320;51.498;6.556;2022-11-20T05:18:03;1.40;99.90
8565;DHT22;4320;51.498;6.556;2022-11-20T05:20:29;1.40;99.90
8565;DHT22;4320;51.498;6.556;2022-11-20T05:22:58;1.60;99.90
8565;DHT22;4320;51.498;6.556;2022-11-20T05:25:24;1.60;99.90
8565;DHT22;4320;51.498;6.556;2022-11-20T05:27:50;1.80;99.90
8565;DHT22;4320;51.498;6.556;2022-11-20T05:30:16;1.90;99.90
8565;DHT22;4320;51.498;6.556;2022-11-20T05:32:41;1.90;99.90
8565;DHT22;4320;51.498;6.556;2022-11-20T05:35:07;1.80;99.90
8565;DHT22;4320;51.498;6.556;2022-11-20T05:37:33;1.80;99.90
8565;DHT22;4320;51.498;6.556;2022-11-20T05:39:58;1.90;99.90
8565;DHT22;4320;51.498;6.556;2022-11-20T05:42:24;1.90;99.90
8565;DHT22;4320;51.498;6.556;2022-11-20T05:45:00;1.90;99.90
8565;DHT22;4320;51.498;6.556;2022-11-20T05:47:27;1.90;99.90
8565;DHT22;4320;51.498;6.556;2022-11-20T05:49:53;2.00;99.90
8565;DHT22;4320;51.498;6.556;2022-11-20T05:52:19;2.00;99.90
8565;DHT22;4320;51.498;6.556;2022-11-20T05:54:45;2.10;99.90
8565;DHT22;4320;51.498;6.556;2022-11-20T05:57:10;2.00;99.90
8565;DHT22;4320;51.498;6.556;2022-11-20T05:59:36;2.00;99.90
8565;DHT22;4320;51.498;6.556;2022-11-20T06:02:02;2.10;99.90
8565;DHT22;4320;51.498;6.556;2022-11-20T06:04:27;2.20;99.90
8565;DHT22;4320;51.498;6.556;2022-11-20T06:06:53;2.20;99.90
8565;DHT22;4320;51.498;6.556;2022-11-20T06:09:18;2.30;99.90
8565;DHT22;4320;51.498;6.556;2022-11-20T06:11:44;2.20;99.90
8565;DHT22;4320;51.498;6.556;2022-11-20T06:14:09;2.10;99.90
8565;DHT22;4320;51.498;6.556;2022-11-20T06:16:35;2.10;99.90
8565;DHT22;4320;51.498;6.556;2022-11-20T06:19:01;2.20;99.90
8565;DHT22;4320;51.498;6.556;2022-11-20T06:21:27;2.20;99.90
8565;DHT22;4320;51.498;6.556;2022-11-20T06:23:53;2.20;99.90
8565;DHT22;4320;51.498;6.556;2022-11-20T06:26:21;2.30;99.90
8565;DHT22;4320;51.498;6.556;2022-11-20T06:28:48;2.30;99.90
8565;DHT22;4320;51.498;6.556;2022-11-20T06:31:15;2.30;99.90
8565;DHT22;4320;51.498;6.556;2022-11-20T06:33:42;2.30;99.90
8565;DHT22;4320;51.498;6.556;2022-11-20T06:36:09;2.20;99.90
8565;DHT22;4320;51.498;6.556;2022-11-20T06:38:35;2.20;99.90
8565;DHT22;4320;51.498;6.556;2022-11-20T06:41:00;2.20;99.90
8565;DHT22;4320;51.498;6.556;2022-11-20T06:43:28;2.30;99.90
8565;DHT22;4320;51.498;6.556;2022-11-20T06:45:54;2.30;99.90
8565;DHT22;4320;51.498;6.556;2022-11-20T06:48:22;2.30;99.90
8565;DHT22;4320;51.498;6.556;2022-11-20T06:50:48;2.30;99.90
8565;DHT22;4320;51.498;6.556;2022-11-20T06:53:13;2.30;99.90
8565;DHT22;4320;51.498;6.556;2022-11-20T06:55:43;2.40;99.90
8565;DHT22;4320;51.498;6.556;2022-11-20T06:58:09;2.50;99.90
8565;DHT22;4320;51.498;6.556;2022-11-20T07:00:35;2.50;99.90
8565;DHT22;4320;51.498;6.556;2022-11-20T07:03:07;2.50;99.90
8565;DHT22;4320;51.498;6.556;2022-11-20T07:05:34;2.50;99.90
8565;DHT22;4320;51.498;6.556;2022-11-20T07:08:00;2.60;99.90
8565;DHT22;4320;51.498;6.556;2022-11-20T07:10:26;2.50;99.90
8565;DHT22;4320;51.498;6.556;2022-11-20T07:12:52;2.50;99.90
8565;DHT22;4320;51.498;6.556;2022-11-20T07:15:20;2.50;99.90
8565;DHT22;4320;51.498;6.556;2022-11-20T07:17:45;2.40;99.90
8565;DHT22;4320;51.498;6.556;2022-11-20T07:20:14;2.30;99.90
8565;DHT22;4320;51.498;6.556;2022-11-20T07:22:40;2.30;99.90
8565;DHT22;4320;51.498;6.556;2022-11-20T07:25:07;2.40;99.90
8565;DHT22;4320;51.498;6.556;2022-11-20T07:27:33;2.40;99.90
8565;DHT22;4320;51.498;6.556;2022-11-20T07:29:59;2.40;99.90
8565;DHT22;4320;51.498;6.556;2022-11-20T07:32:26;2.40;99.90
8565;DHT22;4320;51.498;6.556;2022-11-20T07:34:51;2.50;99.90
8565;DHT22;4320;51.498;6.556;2022-11-20T07:37:17;2.60;99.90
8565;DHT22;4320;51.498;6.556;2022-11-20T07:39:43;2.70;99.90
8565;DHT22;4320;51.498;6.556;2022-11-20T07:42:09;2.60;99.90
8565;DHT22;4320;51.498;6.556;2022-11-20T07:44:35;2.70;99.90
8565;DHT22;4320;51.498;6.556;2022-11-20T07:47:01;2.80;99.90
8565;DHT22;4320;51.498;6.556;2022-11-20T07:49:27;2.80;99.90
8565;DHT22;4320;51.498;6.556;2022-11-20T07:51:53;2.80;99.90
8565;DHT22;4320;51.498;6.556;2022-11-20T07:54:19;2.80;99.90
8565;DHT22;4320;51.498;6.556;2022-11-20T07:56:46;2.80;99.90
8565;DHT22;4320;51.498;6.556;2022-11-20T07:59:11;2.80;99.90
8565;DHT22;4320;51.498;6.556;2022-11-20T08:01:38;2.90;99.90
8565;DHT22;4320;51.498;6.556;2022-11-20T08:04:03;3.00;99.90
8565;DHT22;4320;51.498;6.556;2022-11-20T08:06:29;3.10;99.90
8565;DHT22;4320;51.498;6.556;2022-11-20T08:08:55;3.20;99.90
8565;DHT22;4320;51.498;6.556;2022-11-20T08:11:20;3.30;99.90
8565;DHT22;4320;51.498;6.556;2022-11-20T08:14:05;3.30;99.90
8565;DHT22;4320;51.498;6.556;2022-11-20T08:16:44;3.40;99.90
8565;DHT22;4320;51.498;6.556;2022-11-20T08:19:11;3.50;99.90
8565;DHT22;4320;51.498;6.556;2022-11-20T08:21:37;3.50;99.90
8565;DHT22;4320;51.498;6.556;2022-11-20T08:24:03;3.50;99.90
8565;DHT22;4320;51.498;6.556;2022-11-20T08:26:29;3.60;99.90
8565;DHT22;4320;51.498;6.556;2022-11-20T08:28:56;3.60;99.90
8565;DHT22;4320;51.498;6.556;2022-11-20T08:31:23;3.60;99.90
8565;DHT22;4320;51.498;6.556;2022-11-20T08:33:49;3.60;99.90
8565;DHT22;4320;51.498;6.556;2022-11-20T08:36:15;3.80;99.90
8565;DHT22;4320;51.498;6.556;2022-11-20T08:38:41;3.80;99.90
8565;DHT22;4320;51.498;6.556;2022-11-20T08:41:07;3.90;99.90
8565;DHT22;4320;51.498;6.556;2022-11-20T08:43:57;4.00;99.90
8565;DHT22;4320;51.498;6.556;2022-11-20T08:46:28;4.10;99.90
8565;DHT22;4320;51.498;6.556;2022-11-20T08:48:54;4.10;99.90
8565;DHT22;4320;51.498;6.556;2022-11-20T08:51:20;4.20;99.90
8565;DHT22;4320;51.498;6.556;2022-11-20T08:53:46;4.00;99.90
8565;DHT22;4320;51.498;6.556;2022-11-20T08:56:14;3.90;99.90
8565;DHT22;4320;51.498;6.556;2022-11-20T08:58:39;4.00;99.90
8565;DHT22;4320;51.498;6.556;2022-11-20T09:01:05;4.00;99.90
8565;DHT22;4320;51.498;6.556;2022-11-20T09:03:31;4.10;99.90
8565;DHT22;4320;51.498;6.556;2022-11-20T09:06:02;4.20;99.90
8565;DHT22;4320;51.498;6.556;2022-11-20T09:08:28;4.30;99.90
8565;DHT22;4320;51.498;6.556;2022-11-20T09:10:55;4.50;99.90
8565;DHT22;4320;51.498;6.556;2022-11-20T09:13:22;4.50;99.90
8565;DHT22;4320;51.498;6.556;2022-11-20T09:15:56;4.50;99.90
8565;DHT22;4320;51.498;6.556;2022-11-20T09:18:26;4.50;99.90
8565;DHT22;4320;51.498;6.556;2022-11-20T09:20:55;4.40;99.90
8565;DHT22;4320;51.498;6.556;2022-11-20T09:23:21;4.40;99.90
8565;DHT22;4320;51.498;6.556;2022-11-20T09:25:47;4.30;99.90
8565;DHT22;4320;51.498;6.556;2022-11-20T09:28:12;4.40;99.90
8565;DHT22;4320;51.498;6.556;2022-11-20T09:30:38;4.40;99.90
8565;DHT22;4320;51.498;6.556;2022-11-20T09:33:05;4.50;99.90
8565;DHT22;4320;51.498;6.556;2022-11-20T09:35:32;4.40;99.90
8565;DHT22;4320;51.498;6.556;2022-11-20T09:37:57;4.60;99.90
8565;DHT22;4320;51.498;6.556;2022-11-20T09:40:25;4.70;99.90
8565;DHT22;4320;51.498;6.556;2022-11-20T09:43:02;4.70;99.90
8565;DHT22;4320;51.498;6.556;2022-11-20T09:56:27;6.40;98.80
8565;DHT22;4320;51.498;6.556;2022-11-20T09:58:57;6.20;97.90
8565;DHT22;4320;51.498;6.556;2022-11-20T10:01:41;6.00;97.20
8565;DHT22;4320;51.498;6.556;2022-11-20T10:04:19;5.80;97.00
8565;DHT22;4320;51.498;6.556;2022-11-20T10:10:02;5.70;98.00
8565;DHT22;4320;51.498;6.556;2022-11-20T10:12:44;5.70;99.60
8565;DHT22;4320;51.498;6.556;2022-11-20T10:15:33;5.70;99.90
8565;DHT22;4320;51.498;6.556;2022-11-20T10:32:42;5.80;99.90
8565;DHT22;4320;51.498;6.556;2022-11-20T10:35:17;5.90;99.90
8565;DHT22;4320;51.498;6.556;2022-11-20T10:37:46;5.70;99.90
8565;DHT22;4320;51.498;6.556;2022-11-20T10:40:25;5.80;99.90
8565;DHT22;4320;51.498;6.556;2022-11-20T10:42:59;5.90;99.90
8565;DHT22;4320;51.498;6.556;2022-11-20T10:50:37;6.10;99.90
8565;DHT22;4320;51.498;6.556;2022-11-20T10:53:06;6.10;99.90
8565;DHT22;4320;51.498;6.556;2022-11-20T10:55:57;6.10;99.90
8565;DHT22;4320;51.498;6.556;2022-11-20T11:01:21;6.10;99.90
8565;DHT22;4320;51.498;6.556;2022-11-20T11:03:52;6.20;99.90
8565;DHT22;4320;51.498;6.556;2022-11-20T11:06:40;6.20;99.90
8565;DHT22;4320;51.498;6.556;2022-11-20T11:09:14;6.10;99.90
8565;DHT22;4320;51.498;6.556;2022-11-20T11:11:41;6.20;99.90
8565;DHT22;4320;51.498;6.556;2022-11-20T11:14:08;6.10;99.90
8565;DHT22;4320;51.498;6.556;2022-11-20T11:16:34;6.00;99.90
8565;DHT22;4320;51.498;6.556;2022-11-20T11:19:13;6.00;99.90
8565;DHT22;4320;51.498;6.556;2022-11-20T11:21:53;6.00;99.90
8565;DHT22;4320;51.498;6.556;2022-11-20T11:24:24;6.00;99.90
8565;DHT22;4320;51.498;6.556;2022-11-20T11:29:21;6.00;99.90
8565;DHT22;4320;51.498;6.556;2022-11-20T11:31:47;6.10;99.90
8565;DHT22;4320;51.498;6.556;2022-11-20T11:34:15;6.10;99.90
8565;DHT22;4320;51.498;6.556;2022-11-20T11:39:18;5.90;99.90
8565;DHT22;4320;51.498;6.556;2022-11-20T11:41:46;5.90;99.90
8565;DHT22;4320;51.498;6.556;2022-11-20T11:44:18;5.90;99.90
8565;DHT22;4320;51.498;6.556;2022-11-20T11:47:04;5.90;99.90
8565;DHT22;4320;51.498;6.556;2022-11-20T11:49:32;5.90;99.90
8565;DHT22;4320;51.498;6.556;2022-11-20T11:52:17;5.90;99.90
8565;DHT22;4320;51.498;6.556;2022-11-20T11:54:56;5.90;99.90
8565;DHT22;4320;51.498;6.556;2022-11-20T11:59:54;6.00;99.90
8565;DHT22;4320;51.498;6.556;2022-11-20T12:02:36;6.00;99.90
8565;DHT22;4320;51.498;6.556;2022-11-20T12:05:21;5.90;99.90
8565;DHT22;4320;51.498;6.556;2022-11-20T12:08:12;5.90;99.90
8565;DHT22;4320;51.498;6.556;2022-11-20T12:11:04;5.80;99.90
8565;DHT22;4320;51.498;6.556;2022-11-20T12:16:00;5.80;99.90
8565;DHT22;4320;51.498;6.556;2022-11-20T12:18:28;5.90;99.90
8565;DHT22;4320;51.498;6.556;2022-11-20T12:21:20;5.90;99.90
8565;DHT22;4320;51.498;6.556;2022-11-20T12:24:03;5.90;99.90
8565;DHT22;4320;51.498;6.556;2022-11-20T12:39:42;6.20;99.90
8565;DHT22;4320;51.498;6.556;2022-11-20T12:48:14;6.10;99.90
8565;DHT22;4320;51.498;6.556;2022-11-20T12:59:33;6.10;99.90
8565;DHT22;4320;51.498;6.556;2022-11-20T13:07:48;6.00;99.90
8565;DHT22;4320;51.498;6.556;2022-11-20T13:10:30;5.90;99.90
8565;DHT22;4320;51.498;6.556;2022-11-20T13:13:07;5.80;99.90
8565;DHT22;4320;51.498;6.556;2022-11-20T13:16:16;5.80;99.90
8565;DHT22;4320;51.498;6.556;2022-11-20T13:18:43;5.80;99.90
8565;DHT22;4320;51.498;6.556;2022-11-20T13:21:22;5.90;1.00
8565;DHT22;4320;51.498;6.556;2022-11-20T13:26:44;5.80;99.90
8565;DHT22;4320;51.498;6.556;2022-11-20T13:29:16;5.80;1.00
8565;DHT22;4320;51.498;6.556;2022-11-20T13:31:44;5.70;1.00
8565;DHT22;4320;51.498;6.556;2022-11-20T13:34:14;5.70;1.00
8565;DHT22;4320;51.498;6.556;2022-11-20T13:36:53;5.70;1.00
8565;DHT22;4320;51.498;6.556;2022-11-20T13:39:27;5.70;1.00
8565;DHT22;4320;51.498;6.556;2022-11-20T13:42:18;5.70;1.00
8565;DHT22;4320;51.498;6.556;2022-11-20T13:44:53;5.70;1.00
8565;DHT22;4320;51.498;6.556;2022-11-20T13:47:24;5.70;1.00
8565;DHT22;4320;51.498;6.556;2022-11-20T13:49:52;5.70;1.00
8565;DHT22;4320;51.498;6.556;2022-11-20T13:57:36;5.70;1.00
8565;DHT22;4320;51.498;6.556;2022-11-20T14:02:37;5.70;1.00
8565;DHT22;4320;51.498;6.556;2022-11-20T14:05:04;5.60;1.00
8565;DHT22;4320;51.498;6.556;2022-11-20T14:07:40;5.60;1.00
8565;DHT22;4320;51.498;6.556;2022-11-20T14:10:28;5.60;1.00
8565;DHT22;4320;51.498;6.556;2022-11-20T14:12:55;5.50;1.00
8565;DHT22;4320;51.498;6.556;2022-11-20T14:15:39;5.50;1.00
8565;DHT22;4320;51.498;6.556;2022-11-20T14:18:15;5.60;1.00
8565;DHT22;4320;51.498;6.556;2022-11-20T14:20:42;5.60;1.00
8565;DHT22;4320;51.498;6.556;2022-11-20T14:23:10;5.60;1.00
8565;DHT22;4320;51.498;6.556;2022-11-20T14:25:36;5.60;1.00
8565;DHT22;4320;51.498;6.556;2022-11-20T14:28:03;5.60;1.00
8565;DHT22;4320;51.498;6.556;2022-11-20T14:30:59;5.60;1.00
8565;DHT22;4320;51.498;6.556;2022-11-20T14:33:26;5.60;1.00
8565;DHT22;4320;51.498;6.556;2022-11-20T14:35:54;5.70;1.00
8565;DHT22;4320;51.498;6.556;2022-11-20T14:38:31;5.70;1.00
8565;DHT22;4320;51.498;6.556;2022-11-20T14:41:22;5.70;1.00
8565;DHT22;4320;51.498;6.556;2022-11-20T14:43:57;5.60;1.00
8565;DHT22;4320;51.498;6.556;2022-11-20T14:46:23;5.60;1.00
8565;DHT22;4320;51.498;6.556;2022-11-20T14:48:51;5.70;1.00
8565;DHT22;4320;51.498;6.556;2022-11-20T14:51:35;5.60;1.00
8565;DHT22;4320;51.498;6.556;2022-11-20T14:54:19;5.60;1.00
8565;DHT22;4320;51.498;6.556;2022-11-20T14:57:03;5.60;1.00
8565;DHT22;4320;51.498;6.556;2022-11-20T14:59:34;5.70;1.00
8565;DHT22;4320;51.498;6.556;2022-11-20T15:02:06;5.60;1.00
8565;DHT22;4320;51.498;6.556;2022-11-20T15:04:46;5.60;1.00
8565;DHT22;4320;51.498;6.556;2022-11-20T15:07:22;5.60;1.00
8565;DHT22;4320;51.498;6.556;2022-11-20T15:12:27;5.60;1.00
8565;DHT22;4320;51.498;6.556;2022-11-20T15:14:53;5.70;1.00
8565;DHT22;4320;51.498;6.556;2022-11-20T15:17:19;5.70;1.00
8565;DHT22;4320;51.498;6.556;2022-11-20T15:19:44;5.70;1.00
8565;DHT22;4320;51.498;6.556;2022-11-20T15:22:12;5.80;1.00
8565;DHT22;4320;51.498;6.556;2022-11-20T15:24:44;5.70;1.00
8565;DHT22;4320;51.498;6.556;2022-11-20T15:27:10;5.80;1.00
8565;DHT22;4320;51.498;6.556;2022-11-20T15:29:36;5.80;1.00
8565;DHT22;4320;51.498;6.556;2022-11-20T15:32:02;5.80;1.00
8565;DHT22;4320;51.498;6.556;2022-11-20T15:34:27;5.60;1.00
8565;DHT22;4320;51.498;6.556;2022-11-20T15:36:53;5.70;1.00
8565;DHT22;4320;51.498;6.556;2022-11-20T15:39:20;5.70;1.00
8565;DHT22;4320;51.498;6.556;2022-11-20T15:41:45;5.60;1.00
8565;DHT22;4320;51.498;6.556;2022-11-20T15:44:11;5.70;1.00
8565;DHT22;4320;51.498;6.556;2022-11-20T15:46:39;5.70;1.00
8565;DHT22;4320;51.498;6.556;2022-11-20T15:49:13;5.70;1.00
8565;DHT22;4320;51.498;6.556;2022-11-20T15:51:42;5.70;1.00
8565;DHT22;4320;51.498;6.556;2022-11-20T15:56:38;5.70;1.00
8565;DHT22;4320;51.498;6.556;2022-11-20T15:59:04;5.70;1.00
8565;DHT22;4320;51.498;6.556;2022-11-20T16:01:30;5.70;1.00
8565;DHT22;4320;51.498;6.556;2022-11-20T16:03:56;5.70;1.00
8565;DHT22;4320;51.498;6.556;2022-11-20T16:06:21;5.70;1.00
8565;DHT22;4320;51.498;6.556;2022-11-20T16:08:47;5.80;1.00
8565;DHT22;4320;51.498;6.556;2022-11-20T16:11:14;5.90;1.00
8565;DHT22;4320;51.498;6.556;2022-11-20T16:13:41;5.80;1.00
8565;DHT22;4320;51.498;6.556;2022-11-20T16:16:27;5.80;1.00
8565;DHT22;4320;51.498;6.556;2022-11-20T16:18:54;5.80;1.00
8565;DHT22;4320;51.498;6.556;2022-11-20T16:21:19;5.80;1.00
8565;DHT22;4320;51.498;6.556;2022-11-20T16:23:45;5.80;1.00
8565;DHT22;4320;51.498;6.556;2022-11-20T16:26:13;5.80;1.00
8565;DHT22;4320;51.498;6.556;2022-11-20T16:28:39;5.80;1.00
8565;DHT22;4320;51.498;6.556;2022-11-20T16:31:23;5.70;1.00
8565;DHT22;4320;51.498;6.556;2022-11-20T16:33:50;5.60;1.00
8565;DHT22;4320;51.498;6.556;2022-11-20T16:36:16;5.60;1.00
8565;DHT22;4320;51.498;6.556;2022-11-20T16:38:42;5.60;1.00
8565;DHT22;4320;51.498;6.556;2022-11-20T16:41:08;5.70;1.00
8565;DHT22;4320;51.498;6.556;2022-11-20T16:43:48;5.70;1.00
8565;DHT22;4320;51.498;6.556;2022-11-20T16:46:15;5.80;1.00
8565;DHT22;4320;51.498;6.556;2022-11-20T16:48:41;5.80;1.00
8565;DHT22;4320;51.498;6.556;2022-11-20T16:51:10;5.80;1.00
8565;DHT22;4320;51.498;6.556;2022-11-20T16:53:37;5.80;1.00
8565;DHT22;4320;51.498;6.556;2022-11-20T16:56:13;5.80;1.00
8565;DHT22;4320;51.498;6.556;2022-11-20T16:58:43;5.80;1.00
8565;DHT22;4320;51.498;6.556;2022-11-20T17:01:10;5.90;1.00
8565;DHT22;4320;51.498;6.556;2022-11-20T17:03:37;5.80;1.00
8565;DHT22;4320;51.498;6.556;2022-11-20T17:06:17;5.90;1.00
8565;DHT22;4320;51.498;6.556;2022-11-20T17:08:44;5.90;1.00
8565;DHT22;4320;51.498;6.556;2022-11-20T17:11:18;5.90;1.00
8565;DHT22;4320;51.498;6.556;2022-11-20T17:13:44;6.00;1.00
8565;DHT22;4320;51.498;6.556;2022-11-20T17:16:16;6.10;1.00
8565;DHT22;4320;51.498;6.556;2022-11-20T17:18:41;6.20;1.00
8565;DHT22;4320;51.498;6.556;2022-11-20T17:21:08;6.10;1.00
8565;DHT22;4320;51.498;6.556;2022-11-20T17:23:36;6.10;1.00
8565;DHT22;4320;51.498;6.556;2022-11-20T17:26:14;6.20;1.00
8565;DHT22;4320;51.498;6.556;2022-11-20T17:28:41;6.20;1.00
8565;DHT22;4320;51.498;6.556;2022-11-20T17:31:12;6.20;1.00
8565;DHT22;4320;51.498;6.556;2022-11-20T17:33:39;6.20;1.00
8565;DHT22;4320;51.498;6.556;2022-11-20T17:36:07;6.20;1.00
8565;DHT22;4320;51.498;6.556;2022-11-20T17:38:34;6.20;1.00
8565;DHT22;4320;51.498;6.556;2022-11-20T17:41:05;6.10;1.00
8565;DHT22;4320;51.498;6.556;2022-11-20T17:43:32;6.20;1.00
8565;DHT22;4320;51.498;6.556;2022-11-20T17:45:58;6.20;1.00
8565;DHT22;4320;51.498;6.556;2022-11-20T17:48:24;6.20;1.00
8565;DHT22;4320;51.498;6.556;2022-11-20T17:50:49;6.30;1.00
8565;DHT22;4320;51.498;6.556;2022-11-20T17:53:15;6.30;1.00
8565;DHT22;4320;51.498;6.556;2022-11-20T17:55:41;6.40;1.00
8565;DHT22;4320;51.498;6.556;2022-11-20T17:58:28;6.40;1.00
8565;DHT22;4320;51.498;6.556;2022-11-20T18:00:54;6.40;1.00
8565;DHT22;4320;51.498;6.556;2022-11-20T18:03:20;6.50;1.00
8565;DHT22;4320;51.498;6.556;2022-11-20T18:05:45;6.50;1.00
8565;DHT22;4320;51.498;6.556;2022-11-20T18:08:11;6.50;1.00
8565;DHT22;4320;51.498;6.556;2022-11-20T18:10:36;6.40;1.00
8565;DHT22;4320;51.498;6.556;2022-11-20T18:13:02;6.50;1.00
8565;DHT22;4320;51.498;6.556;2022-11-20T18:15:28;6.50;1.00
8565;DHT22;4320;51.498;6.556;2022-11-20T18:17:54;6.60;1.00
8565;DHT22;4320;51.498;6.556;2022-11-20T18:20:20;6.60;1.00
8565;DHT22;4320;51.498;6.556;2022-11-20T18:22:46;6.70;1.00